Time;durP1;ratioP1;P1;durP2;ratioP2;P2;SDS_P1;SDS_P2;PMS_P1;PMS_P2;Temp;Humidity;BMP_temperature;BMP_pressure;BME280_temperature;BME280_humidity;BME280_pressure;Samples;Min_cycle;Max_cycle;Signal;HPM_P1;HPM_P2
2023/05/26 00:00:04;;;;;;;8.50;7.40;;;;;;;17.07;63.60;99396.95;107270;1262;60498;-41
2023/05/26 00:02:36;;;;;;;9.50;8.00;;;;;;;17.03;63.74;99400.35;107263;1257;73864;-41
2023/05/26 00:05:08;;;;;;;10.40;7.90;;;;;;;17.00;63.94;99401.98;107330;1257;67698;-41
2023/05/26 00:07:38;;;;;;;9.90;7.90;;;;;;;16.97;64.04;99397.88;107247;1262;71790;-41
2023/05/26 00:10:09;;;;;;;10.80;8.70;;;;;;;16.92;63.96;99396.58;107220;1257;60558;-41
2023/05/26 00:12:37;;;;;;;11.30;7.80;;;;;;;16.86;64.05;99395.51;107246;1257;60296;-41
2023/05/26 00:15:06;;;;;;;11.20;7.70;;;;;;;16.81;64.35;99395.70;107244;1257;72620;-41
2023/05/26 00:17:35;;;;;;;10.30;7.20;;;;;;;16.80;64.32;99398.83;107208;1257;66457;-40
2023/05/26 00:20:07;;;;;;;9.50;7.60;;;;;;;16.83;64.29;99399.27;107243;1260;72393;-41
2023/05/26 00:22:35;;;;;;;8.90;7.80;;;;;;;16.82;64.30;99395.77;107230;1258;60312;-41
2023/05/26 00:25:03;;;;;;;9.60;8.20;;;;;;;16.81;64.38;99395.70;107238;1258;60345;-41
2023/05/26 00:27:30;;;;;;;9.10;8.00;;;;;;;16.80;64.45;99398.21;107082;1258;74282;-41
2023/05/26 00:29:58;;;;;;;11.00;8.30;;;;;;;16.77;64.42;99396.66;107202;1259;66304;-41
2023/05/26 00:32:26;;;;;;;9.80;8.70;;;;;;;16.75;64.49;99393.87;107209;1262;71436;-41
2023/05/26 00:34:53;;;;;;;14.10;8.40;;;;;;;16.71;64.43;99395.59;107210;1258;60325;-41
2023/05/26 00:37:22;;;;;;;9.30;8.30;;;;;;;16.66;64.66;99392.96;107224;1258;60335;-41
2023/05/26 00:39:49;;;;;;;9.00;8.10;;;;;;;16.62;64.66;99389.08;107217;1258;73455;-40
2023/05/26 00:42:17;;;;;;;10.60;8.30;;;;;;;16.64;64.38;99393.92;107072;1257;66957;-41
2023/05/26 00:44:45;;;;;;;10.80;8.60;;;;;;;16.64;64.33;99395.80;107056;1264;70435;-41
2023/05/26 00:47:12;;;;;;;10.00;9.00;;;;;;;16.61;64.41;99392.98;107213;1257;59768;-41
2023/05/26 00:49:40;;;;;;;11.40;9.50;;;;;;;16.58;64.39;99397.92;107109;1257;60024;-41
2023/05/26 00:52:08;;;;;;;12.80;8.80;;;;;;;16.56;64.47;99397.36;107208;1257;72623;-41
2023/05/26 00:54:35;;;;;;;12.50;9.30;;;;;;;16.55;64.76;99393.14;107240;1257;66775;-41
2023/05/26 00:57:03;;;;;;;11.00;9.40;;;;;;;16.53;64.64;99395.42;107197;1257;71402;-41
2023/05/26 00:59:31;;;;;;;12.90;10.20;;;;;;;16.50;64.66;99394.35;107196;1257;60334;-41
2023/05/26 01:01:59;;;;;;;12.30;8.20;;;;;;;16.47;64.73;99396.31;107108;1257;59303;-41
2023/05/26 01:04:27;;;;;;;9.40;7.90;;;;;;;16.50;64.81;99397.23;107031;1257;73060;-41
2023/05/26 01:06:56;;;;;;;10.90;8.70;;;;;;;16.54;64.88;99397.13;107235;1258;67580;-41
2023/05/26 01:09:23;;;;;;;10.70;9.00;;;;;;;16.54;64.85;99392.45;107219;1260;72648;-41
2023/05/26 01:11:57;;;;;;;11.40;9.40;;;;;;;16.51;64.65;99390.73;107167;1258;60026;-41
2023/05/26 01:14:34;;;;;;;12.70;9.80;;;;;;;16.49;64.59;99388.56;107063;1258;60418;-41
2023/05/26 01:17:05;;;;;;;12.70;10.00;;;;;;;16.47;64.49;99388.26;107216;1260;73842;-41
2023/05/26 01:19:42;;;;;;;11.40;9.70;;;;;;;16.43;64.40;99387.88;107209;1257;68378;-41
2023/05/26 01:22:40;;;;;;;11.50;10.30;;;;;;;16.38;64.53;99389.70;107098;1258;71390;-41
2023/05/26 01:25:24;;;;;;;13.40;10.20;;;;;;;16.32;64.60;99388.71;106944;1257;60287;-41
2023/05/26 01:28:12;;;;;;;14.30;9.60;;;;;;;16.26;64.94;99388.81;107297;1258;60578;-41
2023/05/26 01:30:42;;;;;;;11.90;9.20;;;;;;;16.26;65.14;99384.99;107081;1258;72874;-41
2023/05/26 01:33:09;;;;;;;10.30;9.10;;;;;;;16.25;65.34;99390.15;107177;1257;66782;-41
2023/05/26 01:35:37;;;;;;;14.50;10.00;;;;;;;16.24;65.47;99388.67;107034;1258;72682;-41
2023/05/26 01:38:05;;;;;;;12.20;9.50;;;;;;;16.22;65.54;99394.44;107203;1257;60518;-40
2023/05/26 01:40:33;;;;;;;16.00;10.60;;;;;;;16.19;65.51;99395.64;107067;1258;60295;-41
2023/05/26 01:43:05;;;;;;;12.10;10.80;;;;;;;16.17;65.56;99391.11;107151;1257;73831;-40
2023/05/26 01:45:36;;;;;;;12.20;10.70;;;;;;;16.16;65.64;99394.72;107106;1257;67920;-40
2023/05/26 01:48:05;;;;;;;10.10;9.10;;;;;;;16.10;65.63;99394.34;107071;1260;71444;-41
2023/05/26 01:50:35;;;;;;;11.10;9.30;;;;;;;16.13;65.73;99397.38;107208;1257;60966;-41
2023/05/26 01:53:06;;;;;;;12.60;9.30;;;;;;;16.13;65.62;99394.09;107112;1256;60127;-41
2023/05/26 01:55:35;;;;;;;12.30;10.00;;;;;;;16.10;65.72;99393.80;107220;1257;73847;-41
2023/05/26 01:58:03;;;;;;;13.40;10.80;;;;;;;16.06;65.45;99392.23;107240;1257;67929;-41
2023/05/26 02:00:33;;;;;;;11.40;9.80;;;;;;;16.00;65.80;99395.45;107130;1257;70431;-41
2023/05/26 02:03:02;;;;;;;12.30;9.90;;;;;;;15.97;65.91;99396.17;107226;1257;60878;-41
2023/05/26 02:05:30;;;;;;;11.60;9.90;;;;;;;15.94;66.06;99399.15;107205;1257;60374;-41
2023/05/26 02:07:57;;;;;;;11.90;9.90;;;;;;;15.87;66.15;99400.02;107083;1257;72601;-41
2023/05/26 02:10:25;;;;;;;10.50;9.30;;;;;;;15.85;66.27;99398.30;107187;1257;66597;-41
2023/05/26 02:12:53;;;;;;;12.30;10.10;;;;;;;15.88;66.28;99394.94;107187;1261;72735;-41
2023/05/26 02:15:21;;;;;;;10.80;9.40;;;;;;;15.88;66.34;99396.50;107255;1257;60325;-41
2023/05/26 02:17:48;;;;;;;12.20;10.00;;;;;;;15.84;66.56;99394.55;107202;1258;60301;-40
2023/05/26 02:20:16;;;;;;;10.70;9.60;;;;;;;15.84;66.65;99397.05;107044;1257;71441;-41
2023/05/26 02:22:44;;;;;;;13.20;9.70;;;;;;;15.86;66.47;99398.15;107134;1257;66516;-40
2023/05/26 02:25:11;;;;;;;11.90;9.30;;;;;;;15.85;66.49;99397.45;107067;1263;71067;-41
2023/05/26 02:27:39;;;;;;;17.90;9.80;;;;;;;15.86;66.49;99397.14;107472;1254;61771;-41
2023/05/26 02:30:08;;;;;;;10.70;9.60;;;;;;;15.89;66.42;99399.08;107528;1254;60530;-40
2023/05/26 02:32:36;;;;;;;11.70;9.80;;;;;;;15.92;66.33;99400.63;107512;1254;73900;-41
2023/05/26 02:35:05;;;;;;;12.90;9.80;;;;;;;15.93;66.47;99401.80;107651;1254;66264;-41
2023/05/26 02:37:33;;;;;;;12.30;9.80;;;;;;;15.93;66.53;99397.19;107552;1254;71428;-41
2023/05/26 02:40:00;;;;;;;11.50;10.30;;;;;;;15.94;66.55;99396.17;107523;1254;60473;-40
2023/05/26 02:42:28;;;;;;;12.00;9.60;;;;;;;15.96;66.56;99398.75;107350;1254;60396;-41
2023/05/26 02:44:56;;;;;;;12.80;9.80;;;;;;;15.97;66.49;99400.54;107487;1254;72839;-41
2023/05/26 02:47:23;;;;;;;10.20;8.80;;;;;;;15.99;66.57;99402.81;107565;1258;66486;-41
2023/05/26 02:49:51;;;;;;;9.10;8.20;;;;;;;16.05;66.32;99404.96;107552;1254;71409;-40
2023/05/26 02:52:21;;;;;;;11.40;8.50;;;;;;;16.13;66.34;99407.70;107368;1256;60120;-41
2023/05/26 02:54:48;;;;;;;10.70;8.40;;;;;;;16.18;66.24;99406.81;107519;1254;60122;-41
2023/05/26 02:57:16;;;;;;;9.90;8.10;;;;;;;16.22;66.08;99409.70;107534;1258;72991;-41
2023/05/26 02:59:44;;;;;;;11.50;8.50;;;;;;;16.27;65.85;99407.58;107496;1254;66753;-41
2023/05/26 03:02:11;;;;;;;9.80;8.10;;;;;;;16.34;65.63;99405.20;107518;1254;71544;-41
2023/05/26 03:04:39;;;;;;;10.50;8.30;;;;;;;16.39;65.65;99404.09;107498;1254;60232;-41
2023/05/26 03:07:09;;;;;;;11.80;8.40;;;;;;;16.44;65.69;99406.09;107530;1253;60156;-40
2023/05/26 03:09:38;;;;;;;10.20;7.70;;;;;;;16.48;65.79;99405.52;107331;1254;73966;-40
2023/05/26 03:12:06;;;;;;;8.80;7.20;;;;;;;16.56;65.67;99411.77;107575;1254;67586;-40
2023/05/26 03:14:34;;;;;;;9.00;7.60;;;;;;;16.65;65.61;99411.11;107535;1257;72577;-40
2023/05/26 03:17:02;;;;;;;9.70;8.10;;;;;;;16.72;65.43;99410.94;107488;1254;60309;-40
2023/05/26 03:19:30;;;;;;;9.40;8.20;;;;;;;16.77;65.22;99410.20;107619;1254;60600;-40
2023/05/26 03:21:57;;;;;;;11.80;8.50;;;;;;;16.83;65.11;99410.39;107501;1254;73989;-40
2023/05/26 03:24:45;;;;;;;11.60;8.90;;;;;;;16.89;65.06;99413.02;107375;1259;67869;-40
2023/05/26 03:27:13;;;;;;;9.90;8.50;;;;;;;16.93;65.07;99418.31;107483;1256;71955;-40
2023/05/26 03:29:40;;;;;;;9.50;8.50;;;;;;;16.96;64.83;99417.91;107378;1254;60414;-40
2023/05/26 03:32:08;;;;;;;11.50;8.40;;;;;;;16.98;64.62;99421.11;107609;1254;60144;-40
2023/05/26 03:34:39;;;;;;;10.80;7.50;;;;;;;17.00;64.49;99422.35;107504;1254;73871;-40
2023/05/26 03:37:07;;;;;;;12.60;7.90;;;;;;;17.05;64.42;99425.05;107510;1253;67564;-40
2023/05/26 03:39:34;;;;;;;12.60;8.10;;;;;;;17.15;64.38;99426.01;107353;1254;71387;-40
2023/05/26 03:42:03;;;;;;;9.60;8.20;;;;;;;17.22;64.44;99428.69;107482;1254;60354;-40
2023/05/26 03:44:32;;;;;;;12.50;8.50;;;;;;;17.27;64.47;99427.17;107553;1254;60339;-40
2023/05/26 03:47:00;;;;;;;9.60;8.20;;;;;;;17.32;64.62;99432.07;107507;1254;73870;-40
2023/05/26 03:49:28;;;;;;;15.30;8.50;;;;;;;17.39;64.97;99430.62;107528;1254;66612;-40
2023/05/26 03:51:56;;;;;;;9.70;8.40;;;;;;;17.45;65.23;99426.80;107494;1258;72747;-40
2023/05/26 03:54:23;;;;;;;12.30;8.90;;;;;;;17.51;65.32;99428.32;107507;1254;60430;-40
2023/05/26 03:56:53;;;;;;;10.30;8.80;;;;;;;17.58;65.15;99428.98;107624;1254;60293;-40
2023/05/26 03:59:22;;;;;;;8.90;7.70;;;;;;;17.67;65.16;99429.01;107508;1254;74100;-40
2023/05/26 04:01:49;;;;;;;10.80;8.10;;;;;;;17.77;65.21;99435.56;107523;1254;67718;-40
2023/05/26 04:04:17;;;;;;;9.90;8.40;;;;;;;17.85;65.25;99436.91;107490;1254;72686;-40
2023/05/26 04:06:45;;;;;;;10.10;8.20;;;;;;;17.91;65.20;99432.54;107482;1254;60399;-40
2023/05/26 04:09:13;;;;;;;12.50;8.20;;;;;;;17.99;65.11;99431.29;107510;1254;60422;-40
2023/05/26 04:11:40;;;;;;;10.00;8.90;;;;;;;18.05;64.81;99430.05;107507;1254;73843;-40
2023/05/26 04:14:09;;;;;;;9.70;8.60;;;;;;;18.07;64.60;99435.59;107535;1254;66459;-40
2023/05/26 04:16:38;;;;;;;13.50;8.60;;;;;;;18.07;64.46;99436.94;107500;1254;72696;-40
2023/05/26 04:19:05;;;;;;;16.80;9.00;;;;;;;18.04;63.91;99440.73;107385;1254;60712;-40
2023/05/26 04:21:35;;;;;;;12.30;8.50;;;;;;;17.98;63.53;99441.65;107513;1254;60417;-40
2023/05/26 04:24:03;;;;;;;12.00;8.30;;;;;;;17.95;63.68;99440.59;107543;1254;74302;-40
2023/05/26 04:26:34;;;;;;;11.20;8.40;;;;;;;17.98;63.66;99439.30;107506;1254;67672;-40
2023/05/26 04:29:30;;;;;;;11.10;8.90;;;;;;;18.04;64.13;99437.83;107596;1252;72694;-40
2023/05/26 04:32:27;;;;;;;9.60;7.90;;;;;;;18.09;64.35;99446.24;107082;1260;60433;-39
2023/05/26 04:35:05;;;;;;;12.80;9.10;;;;;;;18.12;64.66;99452.48;107522;1254;60270;-40
2023/05/26 04:37:38;;;;;;;10.50;9.00;;;;;;;18.16;65.54;99451.58;107622;1256;73832;-40
2023/05/26 04:40:09;;;;;;;10.50;8.80;;;;;;;18.20;66.09;99450.98;107555;1254;67622;-40
2023/05/26 04:42:37;;;;;;;11.30;8.10;;;;;;;18.31;66.27;99452.35;107616;1254;72940;-40
2023/05/26 04:45:06;;;;;;;9.60;8.50;;;;;;;18.40;65.95;99449.04;107521;1254;60394;-40
2023/05/26 04:47:36;;;;;;;9.60;8.70;;;;;;;18.48;65.73;99451.77;107499;1258;60358;-40
2023/05/26 04:50:06;;;;;;;10.70;8.70;;;;;;;18.55;65.48;99452.82;107514;1254;72584;-40
2023/05/26 04:52:34;;;;;;;11.00;8.70;;;;;;;18.63;65.09;99455.92;107569;1254;66606;-40
2023/05/26 04:55:03;;;;;;;9.50;8.60;;;;;;;18.69;65.01;99453.91;107520;1254;72671;-40
2023/05/26 04:57:30;;;;;;;10.20;9.10;;;;;;;18.72;64.97;99450.65;107541;1253;60447;-40
2023/05/26 04:59:58;;;;;;;13.70;8.80;;;;;;;18.80;65.24;99455.96;107517;1254;60309;-40
2023/05/26 05:02:26;;;;;;;17.40;8.20;;;;;;;18.91;65.75;99457.70;107668;1254;73828;-39
2023/05/26 05:04:57;;;;;;;11.00;8.90;;;;;;;19.05;65.52;99457.12;107362;1254;68312;-40
2023/05/26 05:07:25;;;;;;;9.80;8.60;;;;;;;19.16;65.10;99460.65;107623;1254;72679;-40
2023/05/26 05:09:53;;;;;;;9.30;8.40;;;;;;;19.26;64.87;99461.13;107633;1253;60177;-40
2023/05/26 05:12:21;;;;;;;10.90;8.80;;;;;;;19.37;64.83;99460.51;107371;1259;60355;-40
2023/05/26 05:14:48;;;;;;;14.10;9.30;;;;;;;19.43;64.79;99459.48;107486;1254;71629;-40
2023/05/26 05:17:17;;;;;;;9.50;8.50;;;;;;;19.49;64.59;99462.39;107503;1254;66498;-40
2023/05/26 05:19:45;;;;;;;9.60;8.50;;;;;;;19.56;64.63;99467.08;107411;1259;72688;-40
2023/05/26 05:22:13;;;;;;;11.70;8.50;;;;;;;19.63;64.60;99468.45;107482;1254;60389;-40
2023/05/26 05:24:40;;;;;;;11.20;8.20;;;;;;;19.77;64.75;99470.10;107504;1254;60441;-40
2023/05/26 05:27:08;;;;;;;9.10;8.00;;;;;;;19.92;64.47;99471.98;107362;1254;73901;-40
2023/05/26 05:29:36;;;;;;;11.80;8.50;;;;;;;20.03;64.26;99467.30;107346;1259;66283;-40
2023/05/26 05:32:04;;;;;;;10.70;8.30;;;;;;;20.13;63.92;99468.77;107458;1254;71826;-40
2023/05/26 05:34:40;;;;;;;11.20;8.60;;;;;;;20.23;63.41;99468.74;107624;1254;60322;-40
2023/05/26 05:37:08;;;;;;;8.50;7.70;;;;;;;20.31;62.63;99467.98;107585;1254;60482;-40
2023/05/26 05:39:36;;;;;;;10.70;8.10;;;;;;;20.40;62.84;99469.55;107595;1257;73270;-40
2023/05/26 05:42:05;;;;;;;9.50;7.90;;;;;;;20.49;62.90;99470.73;107519;1254;67305;-40
2023/05/26 05:44:33;;;;;;;9.20;8.00;;;;;;;20.56;62.43;99469.00;107468;1254;71380;-40
2023/05/26 05:47:01;;;;;;;10.90;8.00;;;;;;;20.64;62.16;99470.59;107618;1254;60168;-40
2023/05/26 05:49:41;;;;;;;8.70;7.40;;;;;;;20.74;62.12;99470.70;107503;1254;60350;-41
2023/05/26 05:52:09;;;;;;;9.90;7.90;;;;;;;20.85;61.75;99467.61;107541;1259;72604;-41
2023/05/26 05:54:37;;;;;;;11.50;7.90;;;;;;;20.99;61.36;99465.67;107502;1260;66411;-41
2023/05/26 05:57:05;;;;;;;9.30;7.80;;;;;;;21.09;60.89;99469.23;107611;1257;71407;-40
2023/05/26 05:59:34;;;;;;;10.40;8.00;;;;;;;21.18;61.06;99467.09;107642;1254;60516;-39
2023/05/26 06:02:02;;;;;;;9.20;7.90;;;;;;;21.28;60.99;99463.95;107507;1254;60399;-40
2023/05/26 06:04:29;;;;;;;13.40;8.20;;;;;;;21.37;60.58;99463.09;107583;1253;73876;-39
2023/05/26 06:06:57;;;;;;;10.90;8.20;;;;;;;21.45;59.33;99461.42;107523;1259;66303;-40
2023/05/26 06:09:25;;;;;;;11.10;8.40;;;;;;;21.50;59.28;99463.05;107482;1257;71430;-39
2023/05/26 06:11:53;;;;;;;10.40;7.60;;;;;;;21.54;59.20;99462.55;107459;1254;60411;-39
2023/05/26 06:14:21;;;;;;;10.30;7.60;;;;;;;21.59;58.80;99465.67;107608;1260;59646;-40
2023/05/26 06:16:48;;;;;;;8.70;7.80;;;;;;;21.63;58.75;99467.54;107497;1254;73849;-40
2023/05/26 06:19:16;;;;;;;11.60;8.40;;;;;;;21.71;59.12;99472.91;107501;1254;67895;-40
2023/05/26 06:21:44;;;;;;;9.30;7.70;;;;;;;21.79;58.48;99473.15;107603;1254;72744;-40
2023/05/26 06:24:12;;;;;;;10.80;8.70;;;;;;;21.83;57.57;99476.73;107493;1254;59330;-40
2023/05/26 06:26:39;;;;;;;12.70;8.50;;;;;;;21.89;58.01;99474.30;107504;1260;60338;-40
2023/05/26 06:29:07;;;;;;;12.00;8.90;;;;;;;21.92;57.87;99470.13;107642;1253;72574;-40
2023/05/26 06:31:36;;;;;;;13.30;8.80;;;;;;;21.98;58.23;99472.29;107534;1258;67609;-40
2023/05/26 06:34:07;;;;;;;8.80;7.40;;;;;;;22.09;58.40;99475.79;107556;1254;71384;-40
2023/05/26 06:36:35;;;;;;;9.20;7.80;;;;;;;22.25;57.74;99475.69;107477;1254;60514;-40
2023/05/26 06:39:03;;;;;;;9.50;7.30;;;;;;;22.40;56.69;99470.15;107506;1253;60421;-40
2023/05/26 06:41:32;;;;;;;13.30;7.10;;;;;;;22.52;56.80;99473.92;107506;1254;72565;-40
2023/05/26 06:44:01;;;;;;;11.40;7.50;;;;;;;22.62;56.18;99472.30;107510;1254;66606;-40
2023/05/26 06:46:30;;;;;;;10.10;7.70;;;;;;;22.70;55.53;99476.65;107603;1257;71356;-40
2023/05/26 06:48:58;;;;;;;12.40;7.40;;;;;;;22.81;56.07;99477.00;107477;1254;60495;-40
2023/05/26 06:51:45;;;;;;;8.40;6.90;;;;;;;22.92;54.83;99473.02;107614;1258;60300;-40
2023/05/26 06:54:13;;;;;;;7.30;6.60;;;;;;;23.03;54.65;99476.97;107520;1254;72621;-40
2023/05/26 06:56:41;;;;;;;10.10;6.80;;;;;;;23.14;54.00;99471.89;107512;1254;67588;-40
2023/05/26 06:59:08;;;;;;;7.30;6.30;;;;;;;23.25;53.24;99467.92;107493;1253;71879;-40
2023/05/26 07:01:36;;;;;;;9.40;7.00;;;;;;;23.37;52.78;99470.17;107501;1254;60408;-40
2023/05/26 07:04:04;;;;;;;9.70;7.00;;;;;;;23.47;52.89;99469.48;107521;1254;60298;-40
2023/05/26 07:06:32;;;;;;;8.50;6.20;;;;;;;23.54;51.82;99468.23;107529;1255;73846;-40
2023/05/26 07:09:14;;;;;;;7.40;5.70;;;;;;;23.65;50.67;99470.33;107641;1254;66355;-40
2023/05/26 07:12:09;;;;;;;6.40;5.60;;;;;;;23.74;49.78;99472.38;107277;1254;366765;-40
2023/05/26 07:16:25;;;;;;;7.10;5.60;;;;;;;23.90;49.34;99461.91;104402;1289;600456;-39
2023/05/26 07:18:52;;;;;;;8.60;5.70;;;;;;;23.97;48.87;99466.48;106646;1267;59214;-40
2023/05/26 07:21:25;;;;;;;8.70;5.50;;;;;;;24.07;48.86;99469.06;106758;1264;59625;-40
2023/05/26 07:23:53;;;;;;;8.10;5.20;;;;;;;24.17;48.52;99468.65;106627;1264;72315;-41
2023/05/26 07:26:21;;;;;;;5.90;4.40;;;;;;;24.29;46.04;99468.51;106686;1263;67965;-40
2023/05/26 07:28:50;;;;;;;7.50;4.20;;;;;;;24.40;44.45;99470.02;106666;1267;72679;-39
2023/05/26 07:31:18;;;;;;;8.00;4.00;;;;;;;24.51;43.15;99470.77;106720;1261;59347;-40
2023/05/26 07:33:50;;;;;;;5.70;4.60;;;;;;;24.63;42.73;99470.12;106827;1262;59894;-40
2023/05/26 07:36:18;;;;;;;5.90;4.50;;;;;;;24.74;43.08;99468.83;106888;1261;72232;-40
2023/05/26 07:38:46;;;;;;;6.20;4.50;;;;;;;24.86;42.93;99469.13;106886;1261;66835;-40
2023/05/26 07:41:13;;;;;;;5.60;4.70;;;;;;;24.97;43.04;99470.14;106882;1261;71328;-40
2023/05/26 07:43:41;;;;;;;6.40;4.70;;;;;;;25.07;41.77;99465.14;106819;1261;60046;-41
2023/05/26 07:46:08;;;;;;;7.40;4.50;;;;;;;25.17;41.64;99463.75;106882;1261;60043;-40
2023/05/26 07:48:36;;;;;;;5.70;4.30;;;;;;;25.27;41.46;99468.04;106889;1261;73089;-40
2023/05/26 07:51:04;;;;;;;8.90;4.10;;;;;;;25.35;40.38;99467.29;106889;1261;67907;-40
2023/05/26 07:53:32;;;;;;;5.30;4.00;;;;;;;25.42;39.51;99458.08;106838;1264;72463;-40
2023/05/26 07:55:59;;;;;;;6.10;4.10;;;;;;;25.48;40.03;99457.74;106873;1261;60087;-40
2023/05/26 07:58:27;;;;;;;4.70;4.10;;;;;;;25.56;38.79;99459.20;106889;1267;59443;-40
2023/05/26 08:00:55;;;;;;;6.70;4.00;;;;;;;25.64;39.62;99460.78;106878;1267;72904;-39
2023/05/26 08:03:23;;;;;;;7.80;4.10;;;;;;;25.75;38.51;99455.66;106876;1261;67863;-40
2023/05/26 08:05:51;;;;;;;6.20;3.90;;;;;;;25.87;38.46;99456.96;106917;1261;72491;-40
2023/05/26 08:08:18;;;;;;;7.30;3.70;;;;;;;26.01;38.37;99456.84;106877;1261;60082;-40
2023/05/26 08:10:46;;;;;;;3.60;3.30;;;;;;;26.13;36.43;99459.65;106883;1261;60012;-40
2023/05/26 08:13:14;;;;;;;4.60;3.20;;;;;;;26.21;32.64;99455.58;106866;1261;72839;-40
2023/05/26 08:15:41;;;;;;;3.20;2.90;;;;;;;26.28;34.51;99460.23;106884;1264;66852;-40
2023/05/26 08:18:10;;;;;;;5.30;3.50;;;;;;;26.35;33.56;99460.48;106876;1263;72697;-40
2023/05/26 08:20:38;;;;;;;5.80;3.00;;;;;;;26.42;33.37;99460.96;106804;1263;60080;-41
2023/05/26 08:23:06;;;;;;;7.00;3.30;;;;;;;26.48;32.32;99456.20;107088;1260;60020;-40
2023/05/26 08:25:33;;;;;;;7.10;3.40;;;;;;;26.54;31.49;99454.48;107067;1260;73015;-41
2023/05/26 08:28:01;;;;;;;4.90;3.60;;;;;;;26.60;32.03;99453.81;107060;1260;66356;-40
2023/05/26 08:30:28;;;;;;;6.50;3.90;;;;;;;26.65;33.55;99449.20;107061;1260;73204;-41
2023/05/26 08:32:56;;;;;;;4.30;3.40;;;;;;;26.72;31.15;99444.17;107055;1260;59715;-41
2023/05/26 08:35:27;;;;;;;4.80;3.00;;;;;;;26.79;31.30;99443.33;107073;1260;60012;-40
2023/05/26 08:37:54;;;;;;;4.10;3.10;;;;;;;26.88;29.51;99441.56;107101;1261;71716;-40
2023/05/26 08:40:22;;;;;;;4.50;3.10;;;;;;;26.98;29.90;99440.86;107048;1260;67597;-41
2023/05/26 08:42:52;;;;;;;5.30;3.50;;;;;;;27.07;29.14;99435.50;106912;1260;73148;-41
2023/05/26 08:45:19;;;;;;;5.20;3.50;;;;;;;27.12;29.93;99436.08;107128;1260;59615;-40
2023/05/26 08:47:48;;;;;;;5.30;3.50;;;;;;;27.21;30.75;99435.33;107071;1260;59314;-41
2023/05/26 08:50:18;;;;;;;5.50;3.20;;;;;;;27.32;30.46;99436.88;106964;1266;73008;-40
2023/05/26 08:52:46;;;;;;;4.50;3.50;;;;;;;27.38;30.30;99435.37;106950;1259;67623;-41
2023/05/26 08:55:32;;;;;;;4.20;3.40;;;;;;;27.45;30.49;99425.40;106928;1260;72699;-41
2023/05/26 08:57:59;;;;;;;6.00;3.30;;;;;;;27.53;30.65;99428.23;107070;1260;60063;-41
2023/05/26 09:00:31;;;;;;;4.30;3.20;;;;;;;27.61;30.90;99425.44;107038;1260;60402;-41
2023/05/26 09:03:01;;;;;;;5.00;3.40;;;;;;;27.69;30.44;99423.45;107028;1260;72855;-40
2023/05/26 09:05:30;;;;;;;4.60;3.50;;;;;;;27.74;30.02;99421.54;107048;1261;67577;-40
2023/05/26 09:07:58;;;;;;;5.20;3.60;;;;;;;27.78;29.72;99418.48;107010;1260;72890;-41
2023/05/26 09:10:29;;;;;;;6.40;3.60;;;;;;;27.84;30.11;99418.66;107039;1260;59588;-41
2023/05/26 09:13:01;;;;;;;6.20;3.50;;;;;;;27.93;30.28;99419.45;107086;1260;60441;-40
2023/05/26 09:15:29;;;;;;;4.60;3.70;;;;;;;27.99;30.55;99422.77;107047;1260;73214;-41
2023/05/26 09:18:04;;;;;;;6.10;4.00;;;;;;;28.00;30.37;99416.20;107089;1261;66742;-41
2023/05/26 09:20:33;;;;;;;8.40;3.80;;;;;;;27.98;30.55;99413.48;107091;1261;71879;-41
2023/05/26 09:23:01;;;;;;;5.30;4.00;;;;;;;27.94;31.32;99415.38;107112;1260;59214;-41
2023/05/26 09:25:43;;;;;;;5.80;4.00;;;;;;;27.95;30.51;99412.80;107037;1264;59604;-41
2023/05/26 09:28:12;;;;;;;4.30;3.50;;;;;;;28.02;30.01;99407.52;107062;1259;73646;-41
2023/05/26 09:30:41;;;;;;;5.20;3.90;;;;;;;28.11;30.58;99402.75;107071;1260;66388;-41
2023/05/26 09:33:10;;;;;;;6.50;5.30;;;;;;;28.23;30.30;99398.78;107041;1260;72648;-40
2023/05/26 09:35:39;;;;;;;;;;;;;;;28.33;30.00;99396.29;107095;1260;60035;-41
2023/05/26 09:38:11;;;;;;;7.80;5.40;;;;;;;28.38;30.95;99397.03;107112;1260;59808;-40
2023/05/26 09:40:48;;;;;;;6.10;4.70;;;;;;;28.45;31.33;99396.09;107087;1260;73015;-41
2023/05/26 09:43:17;;;;;;;6.50;4.50;;;;;;;28.59;30.64;99392.78;107071;1261;67600;-41
2023/05/26 09:45:45;;;;;;;5.20;4.50;;;;;;;28.67;30.20;99396.67;107781;1251;73044;-41
2023/05/26 09:48:13;;;;;;;4.80;3.90;;;;;;;28.69;29.35;99397.89;107740;1251;60028;-41
2023/05/26 09:50:40;;;;;;;4.50;3.90;;;;;;;28.69;29.55;99394.08;107778;1251;60012;-41
2023/05/26 09:53:09;;;;;;;5.90;4.20;;;;;;;28.75;29.00;99391.40;107720;1251;71806;-41
2023/05/26 09:55:42;;;;;;;6.30;4.40;;;;;;;28.81;28.42;99386.75;107798;1256;67666;-40
2023/05/26 09:58:14;;;;;;;5.10;4.50;;;;;;;28.86;27.91;99379.61;107799;1251;72676;-40
2023/05/26 10:00:42;;;;;;;5.80;4.70;;;;;;;28.87;27.69;99378.11;107751;1251;60039;-41
2023/05/26 10:03:10;;;;;;;8.00;4.20;;;;;;;28.86;27.19;99377.13;107784;1251;60639;-41
2023/05/26 10:05:45;;;;;;;8.90;4.10;;;;;;;28.82;27.45;99382.08;107731;1251;73046;-41
2023/05/26 10:08:14;;;;;;;5.40;3.70;;;;;;;28.73;28.40;99387.92;107796;1251;66426;-41
2023/05/26 10:10:43;;;;;;;3.90;3.50;;;;;;;28.57;28.77;99382.15;107717;1251;71023;-41
2023/05/26 10:13:11;;;;;;;5.60;3.40;;;;;;;28.34;29.07;99376.29;107743;1253;59658;-42
2023/05/26 10:15:38;;;;;;;6.80;4.10;;;;;;;28.07;29.62;99376.42;107602;1251;60017;-41
2023/05/26 10:18:06;;;;;;;5.30;3.90;;;;;;;27.82;30.18;99375.98;107833;1251;73045;-41
2023/05/26 10:20:36;;;;;;;5.10;3.70;;;;;;;27.59;30.69;99374.94;107816;1251;67912;-41
2023/05/26 10:23:14;;;;;;;5.20;4.20;;;;;;;27.40;30.97;99378.05;107612;1251;72689;-41
2023/05/26 10:25:47;;;;;;;4.40;3.60;;;;;;;27.19;31.21;99376.64;107799;1251;60058;-41
2023/05/26 10:28:24;;;;;;;5.10;3.80;;;;;;;27.02;31.53;99380.59;107760;1251;60075;-40
2023/05/26 10:31:00;;;;;;;4.10;3.60;;;;;;;26.87;32.20;99377.17;107775;1251;72496;-41
2023/05/26 10:33:41;;;;;;;5.00;3.60;;;;;;;26.76;32.19;99375.43;107737;1251;67577;-41
2023/05/26 10:36:17;;;;;;;4.50;3.50;;;;;;;26.68;32.21;99378.58;107732;1254;71454;-41
2023/05/26 10:38:49;;;;;;;8.60;4.10;;;;;;;26.60;32.30;99374.34;107738;1251;59732;-41
2023/05/26 10:41:35;;;;;;;5.10;3.60;;;;;;;26.51;31.57;99372.45;107587;1251;60018;-41
2023/05/26 10:44:03;;;;;;;5.70;3.70;;;;;;;26.42;32.08;99370.50;107743;1251;73022;-41
2023/05/26 10:46:47;;;;;;;4.10;3.60;;;;;;;26.37;32.22;99372.95;107801;1251;66414;-40
2023/05/26 10:49:19;;;;;;;3.90;3.20;;;;;;;26.32;31.63;99371.41;107528;1251;72739;-40
2023/05/26 10:51:52;;;;;;;3.90;3.40;;;;;;;26.27;31.88;99366.38;107779;1256;60495;-40
2023/05/26 10:54:22;;;;;;;3.50;3.20;;;;;;;26.27;32.06;99364.45;107757;1251;59595;-41
2023/05/26 10:56:54;;;;;;;4.30;3.40;;;;;;;26.30;32.49;99362.62;107755;1251;71473;-41
2023/05/26 10:59:32;;;;;;;4.40;3.50;;;;;;;26.36;32.39;99359.80;107752;1251;67974;-41
2023/05/26 11:02:04;;;;;;;4.30;3.50;;;;;;;26.43;32.76;99360.45;107731;1251;72666;-41
2023/05/26 11:04:45;;;;;;;4.50;3.50;;;;;;;26.47;32.93;99356.39;107802;1252;60042;-41
2023/05/26 11:07:24;;;;;;;3.50;3.10;;;;;;;26.52;32.08;99350.57;107731;1251;60044;-41
2023/05/26 11:10:05;;;;;;;8.70;3.70;;;;;;;26.59;32.94;99353.02;107754;1251;73492;-40
2023/05/26 11:12:54;;;;;;;4.20;3.40;;;;;;;26.65;32.00;99353.17;107738;1251;66595;-40
2023/05/26 11:15:32;;;;;;;5.50;3.50;;;;;;;26.72;32.20;99352.40;107732;1251;72792;-41
2023/05/26 11:18:02;;;;;;;4.50;3.20;;;;;;;26.79;31.79;99351.04;107765;1255;60165;-40
2023/05/26 11:20:30;;;;;;;5.80;3.30;;;;;;;26.89;31.39;99348.15;107754;1251;60020;-42
2023/05/26 11:22:58;;;;;;;4.20;3.50;;;;;;;26.95;31.78;99343.55;107735;1251;73037;-40
2023/05/26 11:25:26;;;;;;;5.20;3.20;;;;;;;27.06;31.78;99341.11;107751;1251;66264;-41
2023/05/26 11:27:54;;;;;;;3.60;3.30;;;;;;;27.23;30.82;99337.00;107711;1251;72704;-40
2023/05/26 11:30:22;;;;;;;7.80;3.10;;;;;;;27.42;31.16;99336.94;107734;1251;60245;-41
2023/05/26 11:32:51;;;;;;;5.00;3.50;;;;;;;27.59;30.38;99332.05;107665;1251;60482;-41
2023/05/26 11:35:23;;;;;;;5.20;4.10;;;;;;;27.77;29.73;99330.89;107725;1251;73906;-40